Time;durP1;ratioP1;P1;durP2;ratioP2;P2;SDS_P1;SDS_P2;PMS_P1;PMS_P2;Temp;Humidity;BMP_temperature;BMP_pressure;BME280_temperature;BME280_humidity;BME280_pressure;Samples;Min_cycle;Max_cycle;Signal;HPM_P1;HPM_P2
2023/03/09 00:03:15;;;;;;;;;;;20.40;51.80;;;;;;4856389;55;20056;-33
2023/03/09 00:08:15;;;;;;;;;;;20.40;51.80;;;;;;4751869;58;20283;-33
2023/03/09 00:13:16;;;;;;;;;;;20.40;51.70;;;;;;4758417;55;20064;-33
2023/03/09 00:18:20;;;;;;;;;;;20.40;51.70;;;;;;4844053;55;20295;-33
2023/03/09 00:23:21;;;;;;;;;;;20.40;51.70;;;;;;5055753;55;20124;-33
2023/03/09 00:28:22;;;;;;;;;;;20.40;51.80;;;;;;5136612;55;20295;-33
2023/03/09 00:33:22;;;;;;;;;;;20.40;51.70;;;;;;4751821;58;20060;-32
2023/03/09 00:38:23;;;;;;;;;;;20.30;51.80;;;;;;4751872;58;20064;-34
2023/03/09 00:43:24;;;;;;;;;;;20.40;51.70;;;;;;5045373;55;20327;-32
2023/03/09 00:48:25;;;;;;;;;;;20.40;51.70;;;;;;4751989;58;20072;-33
2023/03/09 00:53:25;;;;;;;;;;;20.30;51.60;;;;;;5065610;55;20302;-33
2023/03/09 00:58:26;;;;;;;;;;;20.30;51.60;;;;;;4751894;55;20128;-34
2023/03/09 01:03:27;;;;;;;;;;;20.30;51.50;;;;;;4965592;55;20306;-33
2023/03/09 01:08:27;;;;;;;;;;;20.30;51.50;;;;;;4900215;55;20056;-33
2023/03/09 01:13:28;;;;;;;;;;;20.40;51.60;;;;;;4751738;58;20156;-34
2023/03/09 01:18:28;;;;;;;;;;;20.30;51.50;;;;;;4943319;55;20370;-33
2023/03/09 01:23:30;;;;;;;;;;;20.30;51.50;;;;;;4936800;55;20069;-32
2023/03/09 01:28:31;;;;;;;;;;;20.30;51.60;;;;;;4797367;55;20076;-30
2023/03/09 01:33:31;;;;;;;;;;;20.30;51.60;;;;;;4752014;56;20346;-35
2023/03/09 01:38:32;;;;;;;;;;;20.30;51.50;;;;;;4839807;55;20101;-33
2023/03/09 01:43:39;;;;;;;;;;;20.30;51.50;;;;;;4956241;55;20060;-30
2023/03/09 01:48:40;;;;;;;;;;;20.30;51.50;;;;;;4788919;55;20376;-33
2023/03/09 01:53:40;;;;;;;;;;;20.30;51.50;;;;;;4777459;55;20073;-34
2023/03/09 01:58:41;;;;;;;;;;;20.30;51.10;;;;;;4845388;55;20291;-33
2023/03/09 02:03:44;;;;;;;;;;;20.30;51.50;;;;;;4816313;55;20112;-33
2023/03/09 02:08:52;;;;;;;;;;;20.30;51.50;;;;;;4968690;55;20128;-33
2023/03/09 02:13:53;;;;;;;;;;;20.30;52.10;;;;;;4843451;55;20072;-33
2023/03/09 02:18:54;;;;;;;;;;;20.30;51.50;;;;;;4752022;55;20342;-33
2023/03/09 02:26:31;;;;;;;;;;;20.30;51.40;;;;;;4750290;58;20068;-33
2023/03/09 02:31:32;;;;;;;;;;;20.30;51.60;;;;;;4749871;58;20061;-32
2023/03/09 02:36:33;;;;;;;;;;;20.30;51.60;;;;;;4751604;58;20128;-33
2023/03/09 02:41:34;;;;;;;;;;;20.30;51.40;;;;;;4751833;58;20382;-33
2023/03/09 02:46:35;;;;;;;;;;;20.30;52.10;;;;;;5226767;55;20072;-33
2023/03/09 02:51:35;;;;;;;;;;;20.30;51.40;;;;;;4773418;55;20065;-33
2023/03/09 02:56:36;;;;;;;;;;;20.30;51.50;;;;;;4880605;55;20112;-33
2023/03/09 03:01:37;;;;;;;;;;;20.30;51.50;;;;;;4851424;55;20383;-34
2023/03/09 03:06:39;;;;;;;;;;;20.30;51.40;;;;;;4750873;58;20060;-34
2023/03/09 03:11:40;;;;;;;;;;;20.30;51.40;;;;;;4962268;55;20290;-33
2023/03/09 03:16:40;;;;;;;;;;;20.30;51.40;;;;;;4751964;58;20056;-33
2023/03/09 03:21:41;;;;;;;;;;;20.30;52.10;;;;;;4752174;58;20394;-32
2023/03/09 03:26:42;;;;;;;;;;;20.30;51.40;;;;;;5022430;55;20088;-33
2023/03/09 03:31:42;;;;;;;;;;;20.30;51.50;;;;;;4848673;55;20071;-33
2023/03/09 03:36:43;;;;;;;;;;;20.30;51.40;;;;;;4890390;55;20061;-34
2023/03/09 03:41:44;;;;;;;;;;;20.30;51.40;;;;;;4751805;58;20068;-34
2023/03/09 03:46:44;;;;;;;;;;;20.30;51.50;;;;;;4928409;55;20057;-34
2023/03/09 03:51:45;;;;;;;;;;;20.30;51.40;;;;;;4807012;55;20140;-33
2023/03/09 03:56:45;;;;;;;;;;;20.30;51.40;;;;;;4789771;55;20064;-34
2023/03/09 04:01:46;;;;;;;;;;;20.30;51.40;;;;;;4869439;55;20374;-33
2023/03/09 04:06:47;;;;;;;;;;;20.30;51.40;;;;;;5238352;55;20104;-35
2023/03/09 04:11:48;;;;;;;;;;;20.30;51.40;;;;;;4751948;58;20052;-35
2023/03/09 04:16:49;;;;;;;;;;;20.30;51.50;;;;;;4867763;55;20294;-35
2023/03/09 04:21:50;;;;;;;;;;;20.30;51.50;;;;;;4954915;55;20117;-33
2023/03/09 04:26:51;;;;;;;;;;;20.30;51.50;;;;;;4815257;55;20303;-34
2023/03/09 04:31:51;;;;;;;;;;;20.30;51.50;;;;;;4752255;55;20109;-34
2023/03/09 04:36:52;;;;;;;;;;;20.30;51.50;;;;;;4751884;55;20108;-35
2023/03/09 04:41:54;;;;;;;;;;;20.30;51.60;;;;;;4764210;55;20052;-34
2023/03/09 04:46:55;;;;;;;;;;;20.30;51.60;;;;;;4935085;55;20343;-35
2023/03/09 04:51:56;;;;;;;;;;;20.30;51.70;;;;;;5110350;55;20057;-34
2023/03/09 04:56:56;;;;;;;;;;;20.30;52.40;;;;;;4755673;55;20343;-35
2023/03/09 05:01:59;;;;;;;;;;;20.30;51.80;;;;;;4796390;55;20068;-34
2023/03/09 05:06:59;;;;;;;;;;;20.30;51.90;;;;;;4750716;58;20327;-32
2023/03/09 05:12:00;;;;;;;;;;;20.30;51.80;;;;;;4751966;55;20108;-33
2023/03/09 05:17:01;;;;;;;;;;;20.30;51.80;;;;;;4868069;55;20299;-33
2023/03/09 05:22:02;;;;;;;;;;;20.30;51.80;;;;;;4751531;58;20124;-32
2023/03/09 05:27:03;;;;;;;;;;;20.30;51.80;;;;;;4750448;58;20116;-34
2023/03/09 05:32:04;;;;;;;;;;;20.30;51.90;;;;;;4864532;55;20104;-34
2023/03/09 05:37:05;;;;;;;;;;;20.20;51.80;;;;;;4995058;55;20068;-34
2023/03/09 05:42:06;;;;;;;;;;;20.30;51.90;;;;;;4935818;55;20291;-35
2023/03/09 05:47:06;;;;;;;;;;;20.30;51.90;;;;;;4813748;55;20052;-34
2023/03/09 05:52:07;;;;;;;;;;;20.20;51.90;;;;;;4810394;55;20291;-35
2023/03/09 05:57:10;;;;;;;;;;;20.30;51.90;;;;;;4850704;55;20160;-34
2023/03/09 06:02:10;;;;;;;;;;;20.30;51.90;;;;;;5200031;54;20072;-33
2023/03/09 06:07:11;;;;;;;;;;;20.30;51.90;;;;;;4829077;55;20120;-34
2023/03/09 06:12:12;;;;;;;;;;;20.30;51.90;;;;;;5006561;55;20060;-35
2023/03/09 06:17:12;;;;;;;;;;;20.20;52.00;;;;;;4753096;55;20299;-34
2023/03/09 06:22:13;;;;;;;;;;;20.30;52.00;;;;;;4967647;55;20162;-34
2023/03/09 06:27:14;;;;;;;;;;;20.30;51.90;;;;;;4943902;55;20279;-34
2023/03/09 06:32:15;;;;;;;;;;;20.30;51.90;;;;;;4952582;55;20108;-33
2023/03/09 06:37:17;;;;;;;;;;;20.30;51.90;;;;;;4870783;55;20306;-32
2023/03/09 06:42:18;;;;;;;;;;;20.30;51.90;;;;;;4751693;58;20072;-34
2023/03/09 06:47:18;;;;;;;;;;;20.30;51.90;;;;;;4778942;55;20076;-33
2023/03/09 06:52:19;;;;;;;;;;;20.30;51.90;;;;;;4994700;55;20194;-33
2023/03/09 06:57:20;;;;;;;;;;;20.30;51.90;;;;;;4862204;55;20112;-34
2023/03/09 07:02:20;;;;;;;;;;;20.30;51.90;;;;;;4927498;55;20323;-33
2023/03/09 07:07:21;;;;;;;;;;;20.30;51.90;;;;;;4912551;55;20073;-31
2023/03/09 07:12:21;;;;;;;;;;;20.30;51.90;;;;;;4877149;55;20531;-34
2023/03/09 07:17:22;;;;;;;;;;;20.30;51.90;;;;;;4751808;58;20193;-34
2023/03/09 07:22:23;;;;;;;;;;;20.30;52.00;;;;;;4760987;55;20057;-33
2023/03/09 07:27:24;;;;;;;;;;;20.30;51.90;;;;;;4824903;55;20053;-33
2023/03/09 07:32:24;;;;;;;;;;;20.30;51.90;;;;;;4790569;55;20065;-33
2023/03/09 07:37:25;;;;;;;;;;;20.30;51.90;;;;;;4840472;55;20065;-32
2023/03/09 07:42:29;;;;;;;;;;;20.30;51.90;;;;;;4771846;55;20061;-34
2023/03/09 07:47:31;;;;;;;;;;;20.30;51.90;;;;;;4752058;58;20065;-33
2023/03/09 07:52:32;;;;;;;;;;;20.30;51.90;;;;;;4752004;58;20124;-33
2023/03/09 07:57:32;;;;;;;;;;;20.30;51.90;;;;;;4939476;55;20164;-33
2023/03/09 08:02:33;;;;;;;;;;;20.30;52.60;;;;;;4751354;58;20125;-34
2023/03/09 08:07:34;;;;;;;;;;;20.30;52.00;;;;;;4968036;55;20068;-33
2023/03/09 08:12:35;;;;;;;;;;;20.30;52.00;;;;;;4770476;55;20145;-34
2023/03/09 08:17:35;;;;;;;;;;;20.30;52.00;;;;;;4751293;58;20327;-34
2023/03/09 08:22:36;;;;;;;;;;;20.30;51.90;;;;;;4832991;55;20084;-28
2023/03/09 08:27:41;;;;;;;;;;;20.30;52.20;;;;;;4761417;55;20343;-30
2023/03/09 08:32:46;;;;;;;;;;;20.40;52.20;;;;;;4751494;56;20350;-31
2023/03/09 08:37:47;;;;;;;;;;;20.40;52.30;;;;;;4885996;55;20167;-32
2023/03/09 08:42:47;;;;;;;;;;;20.40;52.20;;;;;;4755036;55;20116;-33
2023/03/09 08:47:48;;;;;;;;;;;20.50;52.30;;;;;;4817778;55;20080;-31
2023/03/09 08:52:48;;;;;;;;;;;20.50;52.20;;;;;;4897311;55;20080;-31
2023/03/09 08:57:51;;;;;;;;;;;20.50;52.20;;;;;;4779427;55;20335;-32
2023/03/09 09:02:52;;;;;;;;;;;20.50;52.10;;;;;;4765383;55;20309;-32
2023/03/09 09:07:52;;;;;;;;;;;20.50;52.10;;;;;;4758234;55;20109;-29
2023/03/09 09:12:53;;;;;;;;;;;20.50;52.20;;;;;;4791936;55;20049;-30
2023/03/09 09:17:54;;;;;;;;;;;20.60;52.50;;;;;;4778184;55;20295;-32
2023/03/09 09:22:55;;;;;;;;;;;20.50;52.70;;;;;;4833612;55;20315;-33
2023/03/09 09:27:55;;;;;;;;;;;20.60;52.60;;;;;;4763937;55;20123;-34
2023/03/09 09:32:56;;;;;;;;;;;20.60;52.60;;;;;;4752054;55;20305;-34
2023/03/09 09:37:59;;;;;;;;;;;20.60;52.60;;;;;;4751454;58;20116;-34
2023/03/09 09:42:59;;;;;;;;;;;20.60;52.60;;;;;;4751716;58;20303;-36
2023/03/09 09:48:02;;;;;;;;;;;20.60;52.50;;;;;;4862636;55;20113;-34
2023/03/09 09:53:16;;;;;;;;;;;20.60;52.50;;;;;;4751707;55;20060;-35
2023/03/09 10:00:09;;;;;;;;;;;20.60;52.50;;;;;;4751270;58;20060;-36
2023/03/09 10:06:44;;;;;;;;;;;20.60;52.60;;;;;;4836283;54;20295;-32
2023/03/09 10:11:45;;;;;;;;;;;20.60;52.50;;;;;;4790841;55;20072;-33
2023/03/09 10:16:53;;;;;;;;;;;20.60;52.50;;;;;;4967513;55;20116;-34
2023/03/09 10:22:20;;;;;;;;;;;20.60;52.50;;;;;;4885549;55;20065;-33
2023/03/09 10:27:39;;;;;;;;;;;20.60;52.40;;;;;;4796545;55;20049;-34
2023/03/09 10:32:52;;;;;;;;;;;20.60;52.40;;;;;;5089842;55;20065;-34
2023/03/09 10:37:53;;;;;;;;;;;20.60;52.40;;;;;;4751544;58;20065;-33
2023/03/09 10:42:54;;;;;;;;;;;20.60;52.50;;;;;;4839092;55;20060;-34
2023/03/09 10:47:59;;;;;;;;;;;20.60;52.40;;;;;;4773896;55;20056;-33
